sensor_id;sensor_type;location;lat;lon;timestamp;P1;durP1;ratioP1;P2;durP2;ratioP2
18853;SDS011;9556;49.374;19.446;2023-08-30T00:00:54;6.47;;;4.68;;
18853;SDS011;9556;49.374;19.446;2023-08-30T00:03:22;6.43;;;4.68;;
18853;SDS011;9556;49.374;19.446;2023-08-30T00:05:49;8.02;;;5.15;;
18853;SDS011;9556;49.374;19.446;2023-08-30T00:08:16;6.53;;;4.50;;
18853;SDS011;9556;49.374;19.446;2023-08-30T00:10:44;5.82;;;4.50;;
18853;SDS011;9556;49.374;19.446;2023-08-30T00:13:11;9.00;;;4.97;;
18853;SDS011;9556;49.374;19.446;2023-08-30T00:15:39;6.72;;;4.30;;
18853;SDS011;9556;49.374;19.446;2023-08-30T00:18:07;8.63;;;4.90;;
18853;SDS011;9556;49.374;19.446;2023-08-30T00:20:34;7.13;;;4.78;;
18853;SDS011;9556;49.374;19.446;2023-08-30T00:23:02;11.38;;;4.55;;
18853;SDS011;9556;49.374;19.446;2023-08-30T00:25:29;8.45;;;4.60;;
18853;SDS011;9556;49.374;19.446;2023-08-30T00:27:57;5.40;;;4.60;;
18853;SDS011;9556;49.374;19.446;2023-08-30T00:30:24;7.10;;;4.85;;
18853;SDS011;9556;49.374;19.446;2023-08-30T00:32:52;7.97;;;4.65;;
18853;SDS011;9556;49.374;19.446;2023-08-30T00:35:20;5.97;;;4.20;;
18853;SDS011;9556;49.374;19.446;2023-08-30T00:37:47;6.50;;;4.35;;
18853;SDS011;9556;49.374;19.446;2023-08-30T00:40:14;8.95;;;4.63;;
18853;SDS011;9556;49.374;19.446;2023-08-30T00:42:42;7.68;;;4.97;;
18853;SDS011;9556;49.374;19.446;2023-08-30T00:45:09;7.28;;;4.60;;
18853;SDS011;9556;49.374;19.446;2023-08-30T00:47:36;6.40;;;4.80;;
18853;SDS011;9556;49.374;19.446;2023-08-30T00:50:03;7.20;;;4.80;;
18853;SDS011;9556;49.374;19.446;2023-08-30T00:52:33;8.90;;;4.95;;
18853;SDS011;9556;49.374;19.446;2023-08-30T00:55:00;8.18;;;4.93;;
18853;SDS011;9556;49.374;19.446;2023-08-30T00:57:27;5.70;;;4.72;;
18853;SDS011;9556;49.374;19.446;2023-08-30T00:59:55;7.88;;;4.55;;
18853;SDS011;9556;49.374;19.446;2023-08-30T01:02:23;6.53;;;5.00;;
18853;SDS011;9556;49.374;19.446;2023-08-30T01:04:50;8.20;;;4.95;;
18853;SDS011;9556;49.374;19.446;2023-08-30T01:07:17;6.05;;;4.70;;
18853;SDS011;9556;49.374;19.446;2023-08-30T01:09:46;8.32;;;4.75;;
18853;SDS011;9556;49.374;19.446;2023-08-30T01:12:15;7.32;;;5.00;;
18853;SDS011;9556;49.374;19.446;2023-08-30T01:14:45;6.45;;;4.72;;
18853;SDS011;9556;49.374;19.446;2023-08-30T01:17:19;6.55;;;5.00;;
18853;SDS011;9556;49.374;19.446;2023-08-30T01:19:48;6.80;;;5.00;;
18853;SDS011;9556;49.374;19.446;2023-08-30T01:22:19;8.25;;;5.22;;
18853;SDS011;9556;49.374;19.446;2023-08-30T01:24:52;7.25;;;5.43;;
18853;SDS011;9556;49.374;19.446;2023-08-30T01:27:23;7.97;;;5.65;;
18853;SDS011;9556;49.374;19.446;2023-08-30T01:29:51;7.15;;;5.07;;
18853;SDS011;9556;49.374;19.446;2023-08-30T01:32:20;7.32;;;5.50;;
18853;SDS011;9556;49.374;19.446;2023-08-30T01:34:50;7.18;;;5.15;;
18853;SDS011;9556;49.374;19.446;2023-08-30T01:37:17;6.70;;;5.40;;
18853;SDS011;9556;49.374;19.446;2023-08-30T01:39:45;9.60;;;5.55;;
18853;SDS011;9556;49.374;19.446;2023-08-30T01:42:12;7.60;;;5.53;;
18853;SDS011;9556;49.374;19.446;2023-08-30T01:44:41;6.45;;;5.28;;
18853;SDS011;9556;49.374;19.446;2023-08-30T01:47:09;8.48;;;5.53;;
18853;SDS011;9556;49.374;19.446;2023-08-30T01:49:37;8.25;;;5.53;;
18853;SDS011;9556;49.374;19.446;2023-08-30T01:52:05;7.57;;;5.40;;
18853;SDS011;9556;49.374;19.446;2023-08-30T01:54:33;8.55;;;5.90;;
18853;SDS011;9556;49.374;19.446;2023-08-30T01:57:00;7.82;;;5.65;;
18853;SDS011;9556;49.374;19.446;2023-08-30T01:59:28;8.68;;;5.80;;
18853;SDS011;9556;49.374;19.446;2023-08-30T02:01:57;7.65;;;5.72;;
18853;SDS011;9556;49.374;19.446;2023-08-30T02:04:24;7.38;;;5.90;;
18853;SDS011;9556;49.374;19.446;2023-08-30T02:06:54;8.90;;;6.07;;
18853;SDS011;9556;49.374;19.446;2023-08-30T02:09:24;8.10;;;6.07;;
18853;SDS011;9556;49.374;19.446;2023-08-30T02:11:52;7.10;;;5.80;;
18853;SDS011;9556;49.374;19.446;2023-08-30T02:14:20;8.95;;;6.25;;
18853;SDS011;9556;49.374;19.446;2023-08-30T02:16:48;8.35;;;5.75;;
18853;SDS011;9556;49.374;19.446;2023-08-30T02:19:17;10.00;;;6.15;;
18853;SDS011;9556;49.374;19.446;2023-08-30T02:21:46;8.32;;;6.10;;
18853;SDS011;9556;49.374;19.446;2023-08-30T02:24:13;7.13;;;5.97;;
18853;SDS011;9556;49.374;19.446;2023-08-30T02:26:40;8.70;;;5.95;;
18853;SDS011;9556;49.374;19.446;2023-08-30T02:29:07;8.80;;;6.68;;
18853;SDS011;9556;49.374;19.446;2023-08-30T02:31:35;7.72;;;6.32;;
18853;SDS011;9556;49.374;19.446;2023-08-30T02:34:02;8.80;;;6.60;;
18853;SDS011;9556;49.374;19.446;2023-08-30T02:36:30;7.82;;;5.70;;
18853;SDS011;9556;49.374;19.446;2023-08-30T02:38:57;7.78;;;6.20;;
18853;SDS011;9556;49.374;19.446;2023-08-30T02:41:24;8.65;;;5.93;;
18853;SDS011;9556;49.374;19.446;2023-08-30T02:43:52;8.07;;;6.10;;
18853;SDS011;9556;49.374;19.446;2023-08-30T02:46:19;7.15;;;5.82;;
18853;SDS011;9556;49.374;19.446;2023-08-30T02:48:46;10.00;;;6.10;;
18853;SDS011;9556;49.374;19.446;2023-08-30T02:51:13;7.10;;;5.75;;
18853;SDS011;9556;49.374;19.446;2023-08-30T02:53:41;9.63;;;5.90;;
18853;SDS011;9556;49.374;19.446;2023-08-30T02:56:09;7.45;;;5.97;;
18853;SDS011;9556;49.374;19.446;2023-08-30T02:58:36;7.55;;;5.30;;
18853;SDS011;9556;49.374;19.446;2023-08-30T03:01:03;7.80;;;5.60;;
18853;SDS011;9556;49.374;19.446;2023-08-30T03:03:30;6.80;;;5.30;;
18853;SDS011;9556;49.374;19.446;2023-08-30T03:05:58;6.82;;;5.32;;
18853;SDS011;9556;49.374;19.446;2023-08-30T03:08:25;7.40;;;5.45;;
18853;SDS011;9556;49.374;19.446;2023-08-30T03:10:53;7.68;;;5.32;;
18853;SDS011;9556;49.374;19.446;2023-08-30T03:13:21;7.63;;;5.55;;
18853;SDS011;9556;49.374;19.446;2023-08-30T03:15:48;9.35;;;5.20;;
18853;SDS011;9556;49.374;19.446;2023-08-30T03:18:15;7.03;;;5.20;;
18853;SDS011;9556;49.374;19.446;2023-08-30T03:20:42;7.78;;;5.13;;
18853;SDS011;9556;49.374;19.446;2023-08-30T03:23:09;7.22;;;5.30;;
18853;SDS011;9556;49.374;19.446;2023-08-30T03:25:37;6.57;;;5.05;;
18853;SDS011;9556;49.374;19.446;2023-08-30T03:28:05;5.88;;;4.88;;
18853;SDS011;9556;49.374;19.446;2023-08-30T03:30:33;7.75;;;5.55;;
18853;SDS011;9556;49.374;19.446;2023-08-30T03:33:00;7.10;;;5.07;;
18853;SDS011;9556;49.374;19.446;2023-08-30T03:35:27;7.18;;;5.18;;
18853;SDS011;9556;49.374;19.446;2023-08-30T03:37:54;7.00;;;5.10;;
18853;SDS011;9556;49.374;19.446;2023-08-30T03:40:21;8.55;;;5.82;;
18853;SDS011;9556;49.374;19.446;2023-08-30T03:42:48;7.32;;;5.30;;
18853;SDS011;9556;49.374;19.446;2023-08-30T03:45:17;9.15;;;5.30;;
18853;SDS011;9556;49.374;19.446;2023-08-30T03:47:44;8.68;;;5.40;;
18853;SDS011;9556;49.374;19.446;2023-08-30T03:50:11;7.70;;;5.38;;
18853;SDS011;9556;49.374;19.446;2023-08-30T03:52:38;7.88;;;5.10;;
18853;SDS011;9556;49.374;19.446;2023-08-30T03:55:05;6.85;;;4.97;;
18853;SDS011;9556;49.374;19.446;2023-08-30T03:57:33;7.15;;;5.43;;
18853;SDS011;9556;49.374;19.446;2023-08-30T04:00:00;7.10;;;5.00;;
18853;SDS011;9556;49.374;19.446;2023-08-30T04:02:30;6.18;;;5.00;;
18853;SDS011;9556;49.374;19.446;2023-08-30T04:04:57;8.30;;;4.97;;
18853;SDS011;9556;49.374;19.446;2023-08-30T04:07:24;6.88;;;5.22;;
18853;SDS011;9556;49.374;19.446;2023-08-30T04:09:51;7.90;;;5.13;;
18853;SDS011;9556;49.374;19.446;2023-08-30T04:12:18;9.75;;;5.05;;
18853;SDS011;9556;49.374;19.446;2023-08-30T04:14:46;6.75;;;4.80;;
18853;SDS011;9556;49.374;19.446;2023-08-30T04:17:13;5.80;;;4.82;;
18853;SDS011;9556;49.374;19.446;2023-08-30T04:19:41;6.70;;;4.93;;
18853;SDS011;9556;49.374;19.446;2023-08-30T04:22:08;7.18;;;5.22;;
18853;SDS011;9556;49.374;19.446;2023-08-30T04:24:35;7.75;;;5.15;;
18853;SDS011;9556;49.374;19.446;2023-08-30T04:27:02;7.75;;;5.18;;
18853;SDS011;9556;49.374;19.446;2023-08-30T04:29:29;6.18;;;4.63;;
18853;SDS011;9556;49.374;19.446;2023-08-30T04:31:56;6.60;;;4.82;;
18853;SDS011;9556;49.374;19.446;2023-08-30T04:34:23;5.75;;;4.85;;
18853;SDS011;9556;49.374;19.446;2023-08-30T04:36:52;7.15;;;5.30;;
18853;SDS011;9556;49.374;19.446;2023-08-30T04:39:19;6.80;;;4.63;;
18853;SDS011;9556;49.374;19.446;2023-08-30T04:41:46;7.03;;;5.07;;
18853;SDS011;9556;49.374;19.446;2023-08-30T04:44:13;5.65;;;4.50;;
18853;SDS011;9556;49.374;19.446;2023-08-30T04:46:42;6.35;;;4.97;;
18853;SDS011;9556;49.374;19.446;2023-08-30T04:49:09;6.55;;;4.70;;
18853;SDS011;9556;49.374;19.446;2023-08-30T04:51:36;5.72;;;4.70;;
18853;SDS011;9556;49.374;19.446;2023-08-30T04:54:05;8.27;;;4.65;;
18853;SDS011;9556;49.374;19.446;2023-08-30T04:56:32;7.25;;;4.82;;
18853;SDS011;9556;49.374;19.446;2023-08-30T04:58:59;5.90;;;4.25;;
18853;SDS011;9556;49.374;19.446;2023-08-30T05:01:28;5.65;;;4.70;;
18853;SDS011;9556;49.374;19.446;2023-08-30T05:03:56;4.65;;;3.97;;
18853;SDS011;9556;49.374;19.446;2023-08-30T05:06:23;5.65;;;4.57;;
18853;SDS011;9556;49.374;19.446;2023-08-30T05:08:50;8.90;;;4.50;;
18853;SDS011;9556;49.374;19.446;2023-08-30T05:11:18;5.28;;;4.00;;
18853;SDS011;9556;49.374;19.446;2023-08-30T05:13:46;7.40;;;4.97;;
18853;SDS011;9556;49.374;19.446;2023-08-30T05:16:13;6.22;;;4.57;;
18853;SDS011;9556;49.374;19.446;2023-08-30T05:18:40;5.68;;;4.05;;
18853;SDS011;9556;49.374;19.446;2023-08-30T05:21:07;6.60;;;4.45;;
18853;SDS011;9556;49.374;19.446;2023-08-30T05:23:34;6.07;;;4.63;;
18853;SDS011;9556;49.374;19.446;2023-08-30T05:26:02;6.38;;;4.30;;
18853;SDS011;9556;49.374;19.446;2023-08-30T05:28:30;6.90;;;5.03;;
18853;SDS011;9556;49.374;19.446;2023-08-30T05:30:57;6.13;;;5.03;;
18853;SDS011;9556;49.374;19.446;2023-08-30T05:33:24;7.97;;;5.13;;
18853;SDS011;9556;49.374;19.446;2023-08-30T05:35:52;7.60;;;4.75;;
18853;SDS011;9556;49.374;19.446;2023-08-30T05:38:19;6.22;;;4.78;;
18853;SDS011;9556;49.374;19.446;2023-08-30T05:40:48;6.78;;;4.95;;
18853;SDS011;9556;49.374;19.446;2023-08-30T05:43:15;6.93;;;4.53;;
18853;SDS011;9556;49.374;19.446;2023-08-30T05:45:44;6.15;;;4.53;;
18853;SDS011;9556;49.374;19.446;2023-08-30T05:48:11;6.78;;;4.75;;
18853;SDS011;9556;49.374;19.446;2023-08-30T05:50:39;7.13;;;4.75;;
18853;SDS011;9556;49.374;19.446;2023-08-30T05:53:06;8.88;;;4.70;;
18853;SDS011;9556;49.374;19.446;2023-08-30T05:55:33;8.32;;;5.28;;
18853;SDS011;9556;49.374;19.446;2023-08-30T05:58:00;6.30;;;4.88;;
18853;SDS011;9556;49.374;19.446;2023-08-30T06:00:27;6.95;;;4.90;;
18853;SDS011;9556;49.374;19.446;2023-08-30T06:02:56;7.43;;;4.80;;
18853;SDS011;9556;49.374;19.446;2023-08-30T06:05:23;7.38;;;4.60;;
18853;SDS011;9556;49.374;19.446;2023-08-30T06:07:50;5.30;;;4.28;;
18853;SDS011;9556;49.374;19.446;2023-08-30T06:10:18;6.45;;;4.30;;
18853;SDS011;9556;49.374;19.446;2023-08-30T06:12:45;9.55;;;5.07;;
18853;SDS011;9556;49.374;19.446;2023-08-30T06:15:12;6.97;;;5.07;;
18853;SDS011;9556;49.374;19.446;2023-08-30T06:17:39;8.68;;;5.30;;
18853;SDS011;9556;49.374;19.446;2023-08-30T06:20:08;7.68;;;5.28;;
18853;SDS011;9556;49.374;19.446;2023-08-30T06:22:35;6.47;;;4.80;;
18853;SDS011;9556;49.374;19.446;2023-08-30T06:25:03;6.97;;;5.10;;
18853;SDS011;9556;49.374;19.446;2023-08-30T06:27:31;6.75;;;5.00;;
18853;SDS011;9556;49.374;19.446;2023-08-30T06:29:59;8.50;;;5.30;;
18853;SDS011;9556;49.374;19.446;2023-08-30T06:32:26;8.02;;;5.05;;
18853;SDS011;9556;49.374;19.446;2023-08-30T06:34:53;7.22;;;4.80;;
18853;SDS011;9556;49.374;19.446;2023-08-30T06:37:21;8.70;;;5.22;;
18853;SDS011;9556;49.374;19.446;2023-08-30T06:39:49;6.57;;;4.85;;
18853;SDS011;9556;49.374;19.446;2023-08-30T06:42:16;8.85;;;5.43;;
18853;SDS011;9556;49.374;19.446;2023-08-30T06:44:43;8.25;;;5.70;;
18853;SDS011;9556;49.374;19.446;2023-08-30T06:47:11;6.50;;;4.93;;
18853;SDS011;9556;49.374;19.446;2023-08-30T06:49:38;7.30;;;5.13;;
18853;SDS011;9556;49.374;19.446;2023-08-30T06:52:05;6.78;;;4.85;;
18853;SDS011;9556;49.374;19.446;2023-08-30T06:54:34;7.35;;;5.38;;
18853;SDS011;9556;49.374;19.446;2023-08-30T06:57:01;7.10;;;5.25;;
18853;SDS011;9556;49.374;19.446;2023-08-30T06:59:29;7.97;;;5.20;;
18853;SDS011;9556;49.374;19.446;2023-08-30T07:01:56;7.78;;;5.10;;
18853;SDS011;9556;49.374;19.446;2023-08-30T07:04:23;8.00;;;5.40;;
18853;SDS011;9556;49.374;19.446;2023-08-30T07:06:50;6.25;;;4.90;;
18853;SDS011;9556;49.374;19.446;2023-08-30T07:09:18;6.53;;;5.00;;
18853;SDS011;9556;49.374;19.446;2023-08-30T07:11:46;9.25;;;4.80;;
18853;SDS011;9556;49.374;19.446;2023-08-30T07:14:13;7.78;;;5.05;;
18853;SDS011;9556;49.374;19.446;2023-08-30T07:16:41;7.07;;;4.47;;
18853;SDS011;9556;49.374;19.446;2023-08-30T07:19:08;7.88;;;4.63;;
18853;SDS011;9556;49.374;19.446;2023-08-30T07:21:35;8.15;;;5.20;;
18853;SDS011;9556;49.374;19.446;2023-08-30T07:24:04;5.80;;;4.72;;
18853;SDS011;9556;49.374;19.446;2023-08-30T07:26:31;6.25;;;4.80;;
18853;SDS011;9556;49.374;19.446;2023-08-30T07:29:00;6.82;;;5.25;;
18853;SDS011;9556;49.374;19.446;2023-08-30T07:31:27;8.35;;;4.65;;
18853;SDS011;9556;49.374;19.446;2023-08-30T07:33:54;6.30;;;4.80;;
18853;SDS011;9556;49.374;19.446;2023-08-30T07:36:23;6.70;;;4.55;;
18853;SDS011;9556;49.374;19.446;2023-08-30T07:38:50;6.00;;;4.80;;
18853;SDS011;9556;49.374;19.446;2023-08-30T07:41:17;6.20;;;4.82;;
18853;SDS011;9556;49.374;19.446;2023-08-30T07:43:44;6.50;;;4.85;;
18853;SDS011;9556;49.374;19.446;2023-08-30T07:46:13;7.32;;;5.20;;
18853;SDS011;9556;49.374;19.446;2023-08-30T07:48:40;10.32;;;5.80;;
18853;SDS011;9556;49.374;19.446;2023-08-30T07:51:07;10.70;;;5.47;;
18853;SDS011;9556;49.374;19.446;2023-08-30T07:53:34;9.13;;;5.40;;
18853;SDS011;9556;49.374;19.446;2023-08-30T07:56:01;8.75;;;5.13;;
18853;SDS011;9556;49.374;19.446;2023-08-30T07:58:28;7.20;;;4.85;;
18853;SDS011;9556;49.374;19.446;2023-08-30T08:00:56;8.70;;;5.22;;
18853;SDS011;9556;49.374;19.446;2023-08-30T08:03:24;10.30;;;5.13;;
18853;SDS011;9556;49.374;19.446;2023-08-30T08:05:51;17.65;;;5.00;;
18853;SDS011;9556;49.374;19.446;2023-08-30T08:08:18;9.38;;;4.72;;
18853;SDS011;9556;49.374;19.446;2023-08-30T08:10:45;8.00;;;4.68;;
18853;SDS011;9556;49.374;19.446;2023-08-30T08:13:13;7.82;;;4.40;;
18853;SDS011;9556;49.374;19.446;2023-08-30T08:15:40;7.32;;;4.65;;
18853;SDS011;9556;49.374;19.446;2023-08-30T08:18:08;5.88;;;4.40;;
18853;SDS011;9556;49.374;19.446;2023-08-30T08:20:37;5.90;;;4.20;;
18853;SDS011;9556;49.374;19.446;2023-08-30T08:23:05;6.20;;;4.00;;
18853;SDS011;9556;49.374;19.446;2023-08-30T08:25:32;6.43;;;4.63;;
18853;SDS011;9556;49.374;19.446;2023-08-30T08:27:59;6.82;;;3.95;;
18853;SDS011;9556;49.374;19.446;2023-08-30T08:30:26;6.43;;;3.92;;
18853;SDS011;9556;49.374;19.446;2023-08-30T08:32:55;6.53;;;4.40;;
18853;SDS011;9556;49.374;19.446;2023-08-30T08:35:24;5.53;;;3.88;;
18853;SDS011;9556;49.374;19.446;2023-08-30T08:37:53;6.35;;;4.05;;
18853;SDS011;9556;49.374;19.446;2023-08-30T08:40:20;6.22;;;4.43;;
18853;SDS011;9556;49.374;19.446;2023-08-30T08:42:47;5.47;;;3.80;;
18853;SDS011;9556;49.374;19.446;2023-08-30T08:45:17;6.90;;;3.92;;
18853;SDS011;9556;49.374;19.446;2023-08-30T08:47:45;5.95;;;3.80;;
18853;SDS011;9556;49.374;19.446;2023-08-30T08:50:13;7.78;;;3.75;;
18853;SDS011;9556;49.374;19.446;2023-08-30T08:52:40;7.50;;;3.90;;
18853;SDS011;9556;49.374;19.446;2023-08-30T08:55:09;5.05;;;3.63;;
18853;SDS011;9556;49.374;19.446;2023-08-30T08:57:36;6.32;;;3.50;;
18853;SDS011;9556;49.374;19.446;2023-08-30T09:00:05;4.75;;;3.83;;
18853;SDS011;9556;49.374;19.446;2023-08-30T09:02:33;6.40;;;4.07;;
18853;SDS011;9556;49.374;19.446;2023-08-30T09:05:00;5.70;;;3.67;;
18853;SDS011;9556;49.374;19.446;2023-08-30T09:07:30;6.28;;;3.70;;
18853;SDS011;9556;49.374;19.446;2023-08-30T09:09:57;5.95;;;4.22;;
18853;SDS011;9556;49.374;19.446;2023-08-30T09:12:26;6.03;;;4.03;;
18853;SDS011;9556;49.374;19.446;2023-08-30T09:14:54;5.45;;;3.58;;
18853;SDS011;9556;49.374;19.446;2023-08-30T09:17:21;7.00;;;3.50;;
18853;SDS011;9556;49.374;19.446;2023-08-30T09:19:48;5.07;;;3.80;;
18853;SDS011;9556;49.374;19.446;2023-08-30T09:22:15;6.18;;;4.15;;
18853;SDS011;9556;49.374;19.446;2023-08-30T09:24:43;4.85;;;3.63;;
18853;SDS011;9556;49.374;19.446;2023-08-30T09:27:10;6.43;;;3.72;;
18853;SDS011;9556;49.374;19.446;2023-08-30T09:29:38;5.30;;;3.58;;
18853;SDS011;9556;49.374;19.446;2023-08-30T09:32:08;5.78;;;3.88;;
18853;SDS011;9556;49.374;19.446;2023-08-30T09:34:36;6.40;;;3.95;;
18853;SDS011;9556;49.374;19.446;2023-08-30T09:37:03;8.13;;;3.60;;
18853;SDS011;9556;49.374;19.446;2023-08-30T09:39:30;6.60;;;3.88;;
18853;SDS011;9556;49.374;19.446;2023-08-30T09:41:58;5.35;;;3.65;;
18853;SDS011;9556;49.374;19.446;2023-08-30T09:44:29;6.70;;;3.70;;
18853;SDS011;9556;49.374;19.446;2023-08-30T09:46:58;8.10;;;3.92;;
18853;SDS011;9556;49.374;19.446;2023-08-30T09:49:25;11.07;;;3.75;;
18853;SDS011;9556;49.374;19.446;2023-08-30T09:51:53;5.80;;;3.65;;
18853;SDS011;9556;49.374;19.446;2023-08-30T09:54:20;5.05;;;3.63;;
18853;SDS011;9556;49.374;19.446;2023-08-30T09:56:48;6.72;;;3.70;;
18853;SDS011;9556;49.374;19.446;2023-08-30T09:59:17;5.43;;;3.92;;
18853;SDS011;9556;49.374;19.446;2023-08-30T10:01:46;5.68;;;3.60;;
18853;SDS011;9556;49.374;19.446;2023-08-30T10:04:15;7.85;;;3.92;;
18853;SDS011;9556;49.374;19.446;2023-08-30T10:06:43;7.65;;;3.80;;
18853;SDS011;9556;49.374;19.446;2023-08-30T10:09:12;5.80;;;3.80;;
18853;SDS011;9556;49.374;19.446;2023-08-30T10:11:39;4.80;;;4.00;;
18853;SDS011;9556;49.374;19.446;2023-08-30T10:14:06;7.05;;;3.90;;
18853;SDS011;9556;49.374;19.446;2023-08-30T10:16:37;5.65;;;3.90;;
18853;SDS011;9556;49.374;19.446;2023-08-30T10:19:08;8.65;;;4.32;;
18853;SDS011;9556;49.374;19.446;2023-08-30T10:21:37;6.25;;;4.20;;
18853;SDS011;9556;49.374;19.446;2023-08-30T10:24:07;6.55;;;3.95;;
18853;SDS011;9556;49.374;19.446;2023-08-30T10:26:35;5.88;;;3.80;;
18853;SDS011;9556;49.374;19.446;2023-08-30T10:29:04;4.68;;;3.95;;
18853;SDS011;9556;49.374;19.446;2023-08-30T10:31:33;8.93;;;4.18;;
18853;SDS011;9556;49.374;19.446;2023-08-30T10:34:00;6.15;;;4.28;;
18853;SDS011;9556;49.374;19.446;2023-08-30T10:36:28;6.80;;;3.95;;
18853;SDS011;9556;49.374;19.446;2023-08-30T10:38:57;6.20;;;4.10;;
18853;SDS011;9556;49.374;19.446;2023-08-30T10:41:24;5.05;;;4.00;;
18853;SDS011;9556;49.374;19.446;2023-08-30T10:43:52;5.55;;;3.90;;
18853;SDS011;9556;49.374;19.446;2023-08-30T10:46:29;5.88;;;3.83;;
18853;SDS011;9556;49.374;19.446;2023-08-30T10:48:56;5.85;;;3.88;;
18853;SDS011;9556;49.374;19.446;2023-08-30T10:51:34;5.78;;;4.13;;
18853;SDS011;9556;49.374;19.446;2023-08-30T10:54:05;5.85;;;4.05;;
18853;SDS011;9556;49.374;19.446;2023-08-30T10:56:45;6.45;;;4.18;;
18853;SDS011;9556;49.374;19.446;2023-08-30T10:59:15;5.47;;;3.67;;
18853;SDS011;9556;49.374;19.446;2023-08-30T11:01:43;5.50;;;4.07;;
18853;SDS011;9556;49.374;19.446;2023-08-30T11:04:11;5.88;;;3.72;;
18853;SDS011;9556;49.374;19.446;2023-08-30T11:06:39;5.72;;;3.80;;
18853;SDS011;9556;49.374;19.446;2023-08-30T11:09:07;4.63;;;3.58;;
18853;SDS011;9556;49.374;19.446;2023-08-30T11:11:36;5.50;;;3.72;;
18853;SDS011;9556;49.374;19.446;2023-08-30T11:14:04;5.43;;;3.47;;
18853;SDS011;9556;49.374;19.446;2023-08-30T11:16:31;6.28;;;3.80;;
18853;SDS011;9556;49.374;19.446;2023-08-30T11:18:59;5.78;;;3.40;;
18853;SDS011;9556;49.374;19.446;2023-08-30T11:21:28;5.18;;;3.65;;
18853;SDS011;9556;49.374;19.446;2023-08-30T11:23:55;5.82;;;3.35;;
18853;SDS011;9556;49.374;19.446;2023-08-30T11:26:24;4.90;;;3.50;;
18853;SDS011;9556;49.374;19.446;2023-08-30T11:28:51;4.57;;;3.47;;
18853;SDS011;9556;49.374;19.446;2023-08-30T11:31:19;4.00;;;3.40;;
18853;SDS011;9556;49.374;19.446;2023-08-30T11:33:50;4.35;;;3.17;;
18853;SDS011;9556;49.374;19.446;2023-08-30T11:36:18;3.78;;;3.20;;
18853;SDS011;9556;49.374;19.446;2023-08-30T11:38:45;4.38;;;3.20;;
18853;SDS011;9556;49.374;19.446;2023-08-30T11:41:12;5.20;;;3.60;;
18853;SDS011;9556;49.374;19.446;2023-08-30T11:43:41;4.88;;;3.28;;
18853;SDS011;9556;49.374;19.446;2023-08-30T11:46:08;4.68;;;3.20;;
18853;SDS011;9556;49.374;19.446;2023-08-30T11:48:37;5.30;;;3.22;;
18853;SDS011;9556;49.374;19.446;2023-08-30T11:51:04;5.38;;;3.65;;
18853;SDS011;9556;49.374;19.446;2023-08-30T11:53:32;5.30;;;3.75;;
18853;SDS011;9556;49.374;19.446;2023-08-30T11:55:59;4.93;;;3.40;;
18853;SDS011;9556;49.374;19.446;2023-08-30T11:58:26;5.95;;;3.63;;
18853;SDS011;9556;49.374;19.446;2023-08-30T12:00:55;4.40;;;3.70;;
18853;SDS011;9556;49.374;19.446;2023-08-30T12:03:22;4.90;;;4.00;;
18853;SDS011;9556;49.374;19.446;2023-08-30T12:05:50;5.28;;;3.72;;
18853;SDS011;9556;49.374;19.446;2023-08-30T12:08:17;5.07;;;3.60;;
18853;SDS011;9556;49.374;19.446;2023-08-30T12:10:45;4.10;;;3.38;;
18853;SDS011;9556;49.374;19.446;2023-08-30T12:13:19;4.65;;;3.90;;
18853;SDS011;9556;49.374;19.446;2023-08-30T12:15:46;5.05;;;3.40;;
18853;SDS011;9556;49.374;19.446;2023-08-30T12:18:15;4.57;;;3.70;;
18853;SDS011;9556;49.374;19.446;2023-08-30T12:20:52;4.97;;;3.28;;
18853;SDS011;9556;49.374;19.446;2023-08-30T12:23:19;5.28;;;3.70;;
18853;SDS011;9556;49.374;19.446;2023-08-30T12:25:56;5.05;;;3.65;;
18853;SDS011;9556;49.374;19.446;2023-08-30T12:28:23;4.97;;;3.95;;
18853;SDS011;9556;49.374;19.446;2023-08-30T12:30:50;5.18;;;3.95;;
18853;SDS011;9556;49.374;19.446;2023-08-30T12:33:19;6.00;;;3.45;;
18853;SDS011;9556;49.374;19.446;2023-08-30T12:35:46;6.30;;;3.50;;
18853;SDS011;9556;49.374;19.446;2023-08-30T12:38:13;5.65;;;3.70;;
18853;SDS011;9556;49.374;19.446;2023-08-30T12:40:42;4.38;;;3.63;;
18853;SDS011;9556;49.374;19.446;2023-08-30T12:43:10;5.03;;;3.50;;
18853;SDS011;9556;49.374;19.446;2023-08-30T12:45:37;5.40;;;3.70;;
18853;SDS011;9556;49.374;19.446;2023-08-30T12:48:05;4.15;;;3.22;;
18853;SDS011;9556;49.374;19.446;2023-08-30T12:50:34;4.05;;;3.20;;
18853;SDS011;9556;49.374;19.446;2023-08-30T12:53:01;6.13;;;3.30;;
18853;SDS011;9556;49.374;19.446;2023-08-30T12:55:28;4.40;;;3.17;;
18853;SDS011;9556;49.374;19.446;2023-08-30T12:57:56;4.05;;;3.20;;
18853;SDS011;9556;49.374;19.446;2023-08-30T13:00:23;5.75;;;3.10;;
18853;SDS011;9556;49.374;19.446;2023-08-30T13:02:50;5.00;;;3.20;;
18853;SDS011;9556;49.374;19.446;2023-08-30T13:05:18;5.15;;;3.50;;
18853;SDS011;9556;49.374;19.446;2023-08-30T13:07:47;4.68;;;3.20;;
18853;SDS011;9556;49.374;19.446;2023-08-30T13:10:14;5.25;;;3.35;;
18853;SDS011;9556;49.374;19.446;2023-08-30T13:12:42;4.53;;;3.10;;
18853;SDS011;9556;49.374;19.446;2023-08-30T13:15:09;4.15;;;3.00;;
18853;SDS011;9556;49.374;19.446;2023-08-30T13:17:37;4.45;;;2.95;;
18853;SDS011;9556;49.374;19.446;2023-08-30T13:20:04;4.38;;;3.00;;
18853;SDS011;9556;49.374;19.446;2023-08-30T13:22:32;4.93;;;3.10;;
18853;SDS011;9556;49.374;19.446;2023-08-30T13:25:00;3.60;;;2.80;;
18853;SDS011;9556;49.374;19.446;2023-08-30T13:27:28;5.10;;;2.63;;
18853;SDS011;9556;49.374;19.446;2023-08-30T13:29:56;3.50;;;2.70;;
18853;SDS011;9556;49.374;19.446;2023-08-30T13:32:23;3.58;;;2.72;;
18853;SDS011;9556;49.374;19.446;2023-08-30T13:34:50;5.07;;;2.90;;
18853;SDS011;9556;49.374;19.446;2023-08-30T13:37:17;3.30;;;2.58;;
18853;SDS011;9556;49.374;19.446;2023-08-30T13:39:45;3.10;;;2.60;;
18853;SDS011;9556;49.374;19.446;2023-08-30T13:42:13;3.53;;;2.58;;
18853;SDS011;9556;49.374;19.446;2023-08-30T13:44:41;3.75;;;3.00;;
18853;SDS011;9556;49.374;19.446;2023-08-30T13:47:09;3.78;;;2.60;;
18853;SDS011;9556;49.374;19.446;2023-08-30T13:49:36;3.20;;;2.60;;
18853;SDS011;9556;49.374;19.446;2023-08-30T13:52:04;6.38;;;2.72;;
18853;SDS011;9556;49.374;19.446;2023-08-30T13:54:31;3.80;;;2.70;;
18853;SDS011;9556;49.374;19.446;2023-08-30T13:56:58;4.93;;;2.60;;
18853;SDS011;9556;49.374;19.446;2023-08-30T13:59:27;3.15;;;2.22;;
18853;SDS011;9556;49.374;19.446;2023-08-30T14:01:55;3.83;;;2.70;;
18853;SDS011;9556;49.374;19.446;2023-08-30T14:04:23;3.30;;;2.40;;
18853;SDS011;9556;49.374;19.446;2023-08-30T14:06:51;2.83;;;2.25;;
18853;SDS011;9556;49.374;19.446;2023-08-30T14:09:18;2.80;;;2.20;;
18853;SDS011;9556;49.374;19.446;2023-08-30T14:11:45;4.10;;;2.28;;
18853;SDS011;9556;49.374;19.446;2023-08-30T14:14:12;2.80;;;2.10;;
18853;SDS011;9556;49.374;19.446;2023-08-30T14:16:41;2.60;;;1.90;;
18853;SDS011;9556;49.374;19.446;2023-08-30T14:19:08;2.58;;;2.03;;
18853;SDS011;9556;49.374;19.446;2023-08-30T14:21:36;3.40;;;2.17;;
18853;SDS011;9556;49.374;19.446;2023-08-30T14:24:03;2.33;;;2.13;;
18853;SDS011;9556;49.374;19.446;2023-08-30T14:26:30;3.95;;;2.15;;
18853;SDS011;9556;49.374;19.446;2023-08-30T14:28:57;2.63;;;2.00;;
18853;SDS011;9556;49.374;19.446;2023-08-30T14:31:24;2.45;;;1.70;;
18853;SDS011;9556;49.374;19.446;2023-08-30T14:33:55;2.00;;;1.65;;
18853;SDS011;9556;49.374;19.446;2023-08-30T14:36:22;2.28;;;1.55;;
18853;SDS011;9556;49.374;19.446;2023-08-30T14:38:50;2.40;;;1.60;;
18853;SDS011;9556;49.374;19.446;2023-08-30T14:41:17;2.03;;;1.52;;
18853;SDS011;9556;49.374;19.446;2023-08-30T14:43:44;1.90;;;1.63;;
18853;SDS011;9556;49.374;19.446;2023-08-30T14:46:11;1.85;;;1.60;;
18853;SDS011;9556;49.374;19.446;2023-08-30T14:48:40;2.47;;;1.80;;
18853;SDS011;9556;49.374;19.446;2023-08-30T14:51:09;2.92;;;1.30;;